createdAt,value
2018-12-10T00:02:17.293Z,8.27
2018-12-10T00:04:45.528Z,10.23
2018-12-10T00:07:13.713Z,12.63
2018-12-10T00:09:41.987Z,8.43
2018-12-10T00:12:10.245Z,9.30
2018-12-10T00:14:38.526Z,9.00
2018-12-10T00:17:06.802Z,10.47
2018-12-10T00:19:35.005Z,11.53
2018-12-10T00:22:03.209Z,16.00
2018-12-10T00:24:31.376Z,7.87
2018-12-10T00:26:59.600Z,10.30
2018-12-10T00:29:27.772Z,16.73
2018-12-10T00:31:56.070Z,10.73
2018-12-10T00:34:24.324Z,10.87
2018-12-10T00:36:52.597Z,11.20
2018-12-10T00:39:20.759Z,7.10
2018-12-10T00:41:49.058Z,7.97
2018-12-10T00:44:17.373Z,8.77
2018-12-10T00:46:45.596Z,15.20
2018-12-10T00:49:13.877Z,14.70
2018-12-10T00:51:42.047Z,8.70
2018-12-10T00:54:10.322Z,12.80
2018-12-10T00:56:38.564Z,11.70
2018-12-10T00:59:06.876Z,11.23
2018-12-10T01:01:35.075Z,15.00
2018-12-10T01:04:03.317Z,8.03
2018-12-10T01:06:31.598Z,10.73
2018-12-10T01:08:59.884Z,10.43
2018-12-10T01:11:28.145Z,13.37
2018-12-10T01:13:56.420Z,10.63
2018-12-10T01:16:24.703Z,11.67
2018-12-10T01:18:52.859Z,9.13
2018-12-10T01:21:21.053Z,10.83
2018-12-10T01:23:49.329Z,8.20
2018-12-10T01:26:17.604Z,9.53
2018-12-10T01:28:45.882Z,9.30
2018-12-10T01:31:14.072Z,7.67
2018-12-10T01:33:42.272Z,9.57
2018-12-10T01:36:10.501Z,7.47
2018-12-10T01:38:38.664Z,12.10
2018-12-10T01:41:06.917Z,7.40
2018-12-10T01:43:35.126Z,9.93
2018-12-10T01:46:03.389Z,7.20
2018-12-10T01:48:31.659Z,8.83
2018-12-10T01:50:59.879Z,9.53
2018-12-10T01:53:28.112Z,9.10
2018-12-10T01:55:56.395Z,7.60
2018-12-10T01:58:25.395Z,7.47
2018-12-10T02:00:53.662Z,9.93
2018-12-10T02:03:21.821Z,7.00
2018-12-10T02:05:50.111Z,9.93
2018-12-10T02:08:18.362Z,6.40
2018-12-10T02:10:46.656Z,8.80
2018-12-10T02:13:14.823Z,7.90
2018-12-10T02:15:43.006Z,10.67
2018-12-10T02:18:11.276Z,8.23
2018-12-10T02:20:39.466Z,6.67
2018-12-10T02:23:07.783Z,8.43
2018-12-10T02:25:35.994Z,9.87
2018-12-10T02:28:04.237Z,6.90
2018-12-10T02:30:32.453Z,10.00
2018-12-10T02:33:00.722Z,7.67
2018-12-10T02:35:28.938Z,8.10
2018-12-10T02:37:57.801Z,8.70
2018-12-10T02:40:26.064Z,8.00
2018-12-10T02:42:54.270Z,8.70
2018-12-10T02:45:22.512Z,7.70
2018-12-10T02:47:50.797Z,7.13
2018-12-10T02:50:18.970Z,9.53
2018-12-10T02:52:47.244Z,8.93
2018-12-10T02:55:15.448Z,7.90
2018-12-10T02:57:43.688Z,18.63
2018-12-10T03:00:11.970Z,8.30
2018-12-10T03:02:40.182Z,7.70
2018-12-10T03:05:08.522Z,6.60
2018-12-10T03:07:36.783Z,11.17
2018-12-10T03:10:05.904Z,11.10
2018-12-10T03:12:34.269Z,9.50
2018-12-10T03:15:02.557Z,9.77
2018-12-10T03:17:30.820Z,7.60
2018-12-10T03:19:59.097Z,9.97
2018-12-10T03:22:27.365Z,9.93
2018-12-10T03:24:55.753Z,7.90
2018-12-10T03:27:24.024Z,12.43
2018-12-10T03:29:52.299Z,12.67
2018-12-10T03:32:20.554Z,10.70
2018-12-10T03:34:48.861Z,13.13
2018-12-10T03:37:17.121Z,12.03
2018-12-10T03:39:45.405Z,12.77
2018-12-10T03:42:13.669Z,8.00
2018-12-10T03:44:41.848Z,25.40
2018-12-10T03:47:10.112Z,10.73
2018-12-10T03:49:38.304Z,14.33
2018-12-10T03:52:06.530Z,10.57
2018-12-10T03:54:34.740Z,10.80
2018-12-10T03:57:03.063Z,11.90
2018-12-10T03:59:31.215Z,14.30
2018-12-10T04:01:59.466Z,17.70
2018-12-10T04:04:27.652Z,10.47
2018-12-10T04:06:56.413Z,7.40
2018-12-10T04:09:24.707Z,8.43
2018-12-10T04:11:52.897Z,10.80
2018-12-10T04:14:21.157Z,14.47
2018-12-10T04:16:49.426Z,14.00
2018-12-10T04:19:17.609Z,19.73
2018-12-10T04:21:45.933Z,17.27
2018-12-10T04:24:14.162Z,13.73
2018-12-10T04:26:42.311Z,21.43
2018-12-10T04:29:10.615Z,22.20
2018-12-10T04:31:38.891Z,54.63
2018-12-10T04:34:07.102Z,23.30
2018-12-10T04:36:35.300Z,38.50
2018-12-10T04:39:04.599Z,29.80
2018-12-10T04:41:32.902Z,22.83
2018-12-10T04:44:01.081Z,21.73
2018-12-10T04:46:29.354Z,12.00
2018-12-10T04:48:57.614Z,21.50
2018-12-10T04:51:25.853Z,15.50
2018-12-10T04:53:54.020Z,12.10
2018-12-10T04:56:22.322Z,9.03
2018-12-10T04:58:50.577Z,9.10
2018-12-10T05:01:18.803Z,8.77
2018-12-10T05:03:46.995Z,12.90
2018-12-10T05:06:15.261Z,9.80
2018-12-10T05:08:43.428Z,9.17
2018-12-10T05:11:11.698Z,9.07
2018-12-10T05:13:39.977Z,7.67
2018-12-10T05:16:09.250Z,13.07
2018-12-10T05:18:37.750Z,9.93
2018-12-10T05:21:06.041Z,8.90
2018-12-10T05:23:34.300Z,9.30
2018-12-10T05:26:02.575Z,6.33
2018-12-10T05:28:30.742Z,7.60
2018-12-10T05:30:58.926Z,8.30
2018-12-10T05:33:27.196Z,6.70
2018-12-10T05:35:55.576Z,6.57
2018-12-10T05:38:23.838Z,6.87
2018-12-10T05:40:52.009Z,6.60
2018-12-10T05:43:20.180Z,6.40
2018-12-10T05:45:48.367Z,5.83
2018-12-10T05:48:16.549Z,5.77
2018-12-10T05:50:44.717Z,7.93
2018-12-10T05:53:13.006Z,12.70
2018-12-10T05:55:41.192Z,7.97
2018-12-10T05:58:09.439Z,8.43
2018-12-10T06:00:37.631Z,11.30
2018-12-10T06:03:05.788Z,6.73
2018-12-10T06:05:34.067Z,16.27
2018-12-10T06:08:02.249Z,8.57
2018-12-10T06:10:30.725Z,7.30
2018-12-10T06:12:58.996Z,9.70
2018-12-10T06:15:27.178Z,7.10
2018-12-10T06:17:55.454Z,9.40
2018-12-10T06:20:23.711Z,11.10
2018-12-10T06:22:51.954Z,17.70
2018-12-10T06:25:20.162Z,9.27
2018-12-10T06:27:48.343Z,16.97
2018-12-10T06:30:16.618Z,12.43
2018-12-10T06:33:14.884Z,15.83
2018-12-10T06:35:43.818Z,12.60
2018-12-10T06:38:12.108Z,12.80
2018-12-10T06:40:40.357Z,19.00
2018-12-10T06:43:08.641Z,14.83
2018-12-10T06:45:36.806Z,43.50
2018-12-10T06:48:05.089Z,39.53
2018-12-10T06:50:33.265Z,43.93
2018-12-10T06:53:01.445Z,23.47
2018-12-10T06:55:29.704Z,23.17
2018-12-10T06:57:57.929Z,20.73
2018-12-10T07:00:26.254Z,21.43
2018-12-10T07:02:54.424Z,16.70
2018-12-10T07:05:22.710Z,15.90
2018-12-10T07:07:50.977Z,14.87
2018-12-10T07:10:19.178Z,10.27
2018-12-10T07:12:47.404Z,10.73
2018-12-10T07:15:15.632Z,13.77
2018-12-10T07:17:43.872Z,16.17
2018-12-10T07:20:12.142Z,19.83
2018-12-10T07:22:40.429Z,23.10
2018-12-10T07:25:08.757Z,27.13
2018-12-10T07:27:36.941Z,13.40
2018-12-10T07:30:07.724Z,18.43
2018-12-10T07:32:35.943Z,15.40
2018-12-10T07:35:04.467Z,19.13
2018-12-10T07:37:32.743Z,15.50
2018-12-10T07:40:01.017Z,11.60
2018-12-10T07:42:29.185Z,15.83
2018-12-10T07:44:57.500Z,12.20
2018-12-10T07:47:25.737Z,16.00
2018-12-10T07:49:53.914Z,14.23
2018-12-10T07:52:22.087Z,15.43
2018-12-10T07:54:50.359Z,12.77
2018-12-10T07:57:18.545Z,12.23
2018-12-10T07:59:46.812Z,14.80
2018-12-10T08:02:15.085Z,16.80
2018-12-10T08:04:43.285Z,11.30
2018-12-10T08:07:11.489Z,11.83
2018-12-10T08:09:39.689Z,9.50
2018-12-10T08:12:07.980Z,14.73
2018-12-10T08:14:36.351Z,12.83
2018-12-10T08:17:04.840Z,10.63
2018-12-10T08:19:33.012Z,15.00
2018-12-10T08:22:01.241Z,11.50
2018-12-10T08:24:29.465Z,11.40
2018-12-10T08:26:58.160Z,9.40
2018-12-10T08:29:26.362Z,14.33
2018-12-10T08:31:54.718Z,13.27
2018-12-10T08:34:23.067Z,11.07
2018-12-10T08:36:51.244Z,10.40
2018-12-10T08:39:19.521Z,9.97
2018-12-10T08:41:47.699Z,10.60
2018-12-10T08:44:15.982Z,10.13
2018-12-10T08:46:44.316Z,10.83
2018-12-10T08:49:12.575Z,11.60
2018-12-10T08:51:40.753Z,12.97
2018-12-10T08:54:09.086Z,8.60
2018-12-10T08:56:37.346Z,7.97
2018-12-10T08:59:05.538Z,9.40
2018-12-10T09:01:34.725Z,7.63
2018-12-10T09:04:02.897Z,10.57
2018-12-10T09:06:31.092Z,8.20
2018-12-10T09:08:59.345Z,11.23
2018-12-10T09:11:27.520Z,7.27
2018-12-10T09:13:55.691Z,13.20
2018-12-10T09:19:01.633Z,9.87
2018-12-10T09:21:30.049Z,8.80
2018-12-10T09:23:58.307Z,12.00
2018-12-10T09:26:26.554Z,9.80
2018-12-10T09:28:54.770Z,14.10
2018-12-10T09:31:23.084Z,9.33
2018-12-10T09:33:51.395Z,10.43
2018-12-10T09:36:19.585Z,14.40
2018-12-10T09:38:47.877Z,13.50
2018-12-10T09:41:16.072Z,11.53
2018-12-10T09:43:44.318Z,9.23
2018-12-10T09:46:12.492Z,15.00
2018-12-10T09:48:40.785Z,11.50
2018-12-10T09:51:08.938Z,8.73
2018-12-10T09:53:37.117Z,9.43
2018-12-10T09:56:05.498Z,10.40
2018-12-10T09:58:33.786Z,17.77
2018-12-10T10:01:02.035Z,12.77
2018-12-10T10:03:30.316Z,13.40
2018-12-10T10:05:58.552Z,9.70
2018-12-10T10:08:26.767Z,13.00
2018-12-10T10:10:55.045Z,10.73
2018-12-10T10:13:24.135Z,11.20
2018-12-10T10:15:53.693Z,11.40
2018-12-10T10:18:21.912Z,11.93
2018-12-10T10:20:50.092Z,11.37
2018-12-10T10:23:18.318Z,9.57
2018-12-10T10:25:46.533Z,11.70
2018-12-10T10:28:14.713Z,8.30
2018-12-10T10:30:43.885Z,9.60
2018-12-10T10:33:12.682Z,12.07
2018-12-10T10:35:40.864Z,11.30
2018-12-10T10:38:09.068Z,9.07
2018-12-10T10:40:37.543Z,16.70
2018-12-10T10:43:05.709Z,13.23
2018-12-10T10:45:34.905Z,9.00
2018-12-10T10:48:03.573Z,9.20
2018-12-10T10:50:31.728Z,8.33
2018-12-10T10:53:00.018Z,8.33
2018-12-10T10:55:28.570Z,6.87
2018-12-10T10:57:56.776Z,7.80
2018-12-10T11:00:30.724Z,6.77
2018-12-10T11:03:05.452Z,10.50
2018-12-10T11:05:33.680Z,9.03
2018-12-10T11:08:01.859Z,13.33
2018-12-10T11:10:30.013Z,8.70
2018-12-10T11:12:58.313Z,9.83
2018-12-10T11:15:26.581Z,9.30
2018-12-10T11:17:54.855Z,8.63
2018-12-10T11:20:23.132Z,8.63
2018-12-10T11:22:51.314Z,9.23
2018-12-10T11:25:19.589Z,9.60
2018-12-10T11:27:47.961Z,13.70
2018-12-10T11:30:16.345Z,18.90
2018-12-10T11:32:44.504Z,13.57
2018-12-10T11:35:12.798Z,11.77
2018-12-10T11:37:41.074Z,13.47
2018-12-10T11:40:09.332Z,8.50
2018-12-10T11:42:37.623Z,9.40
2018-12-10T11:45:06.528Z,12.80
2018-12-10T11:47:34.781Z,8.13
2018-12-10T11:50:03.194Z,8.20
2018-12-10T11:52:31.450Z,10.90
2018-12-10T11:54:59.648Z,10.57
2018-12-10T11:57:27.898Z,10.03
2018-12-10T11:59:56.093Z,8.07
2018-12-10T12:02:29.765Z,11.33
2018-12-10T12:04:54.591Z,11.73
2018-12-10T12:07:22.841Z,14.00
2018-12-10T12:09:51.108Z,12.37
2018-12-10T12:12:19.280Z,13.33
2018-12-10T12:14:47.557Z,11.40
2018-12-10T12:17:15.831Z,16.27
2018-12-10T12:19:44.099Z,13.20
2018-12-10T12:22:13.536Z,17.03
2018-12-10T12:24:42.207Z,17.10
2018-12-10T12:27:10.397Z,12.40
2018-12-10T12:29:38.649Z,9.90
2018-12-10T12:32:06.931Z,8.80
2018-12-10T12:34:35.197Z,13.00
2018-12-10T12:37:03.463Z,17.23
2018-12-10T12:39:31.705Z,18.40
2018-12-10T12:42:00.016Z,20.73
2018-12-10T12:44:28.349Z,7.50
2018-12-10T12:46:56.673Z,12.60
2018-12-10T12:49:25.002Z,10.07
2018-12-10T12:51:53.323Z,10.70
2018-12-10T12:54:21.475Z,12.40
2018-12-10T12:56:49.776Z,11.97
2018-12-10T12:59:17.947Z,13.77
2018-12-10T13:01:49.385Z,11.33
2018-12-10T13:04:17.258Z,8.80
2018-12-10T13:06:45.649Z,12.17
2018-12-10T13:09:21.575Z,15.30
2018-12-10T13:11:44.131Z,13.53
2018-12-10T13:14:12.313Z,15.43
2018-12-10T13:16:40.513Z,18.13
2018-12-10T13:19:08.768Z,15.27
2018-12-10T13:21:36.923Z,12.43
2018-12-10T13:24:05.964Z,12.37
2018-12-10T13:26:34.636Z,12.60
2018-12-10T13:29:02.902Z,16.93
2018-12-10T13:31:31.267Z,10.93
2018-12-10T13:33:59.545Z,14.23
2018-12-10T13:36:27.722Z,14.20
2018-12-10T13:38:55.991Z,14.87
2018-12-10T13:41:24.173Z,11.30
2018-12-10T13:43:52.337Z,10.70
2018-12-10T13:46:21.728Z,12.17
2018-12-10T13:48:49.907Z,11.80
2018-12-10T13:51:18.080Z,12.40
2018-12-10T13:53:46.271Z,15.30
2018-12-10T13:56:14.529Z,16.40
2018-12-10T13:58:42.730Z,15.63
2018-12-10T14:01:10.979Z,15.57
2018-12-10T14:03:39.188Z,17.90
2018-12-10T14:06:07.426Z,15.20
2018-12-10T14:08:35.721Z,11.70
2018-12-10T14:11:04.109Z,17.23
2018-12-10T14:13:32.368Z,14.10
2018-12-10T14:16:00.588Z,13.10
2018-12-10T14:18:28.863Z,16.47
2018-12-10T14:20:57.344Z,12.53
2018-12-10T14:23:25.658Z,12.03
2018-12-10T14:25:53.947Z,11.40
2018-12-10T14:28:22.171Z,17.17
2018-12-10T14:30:50.508Z,14.13
2018-12-10T14:33:18.769Z,11.00
2018-12-10T14:35:47.049Z,8.17
2018-12-10T14:38:15.315Z,10.80
2018-12-10T14:40:43.569Z,21.83
2018-12-10T14:43:11.778Z,16.37
2018-12-10T14:45:40.041Z,13.07
2018-12-10T14:48:08.372Z,17.40
2018-12-10T14:50:36.592Z,17.10
2018-12-10T14:53:04.987Z,12.57
2018-12-10T14:55:33.244Z,23.83
2018-12-10T14:58:01.406Z,18.13
2018-12-10T15:00:29.697Z,21.07
2018-12-10T15:02:57.976Z,19.93
2018-12-10T15:05:26.176Z,10.90
2018-12-10T15:07:54.421Z,11.03
2018-12-10T15:10:23.364Z,18.97
2018-12-10T15:12:51.972Z,15.87
2018-12-10T15:15:20.281Z,17.87
2018-12-10T15:17:48.481Z,19.27
2018-12-10T15:20:16.724Z,15.90
2018-12-10T15:22:45.001Z,13.87
2018-12-10T15:25:13.268Z,12.63
2018-12-10T15:27:41.453Z,20.90
2018-12-10T15:30:09.874Z,26.30
2018-12-10T15:32:38.087Z,18.73
2018-12-10T15:35:06.948Z,34.30
2018-12-10T15:37:35.176Z,19.37
2018-12-10T15:40:04.193Z,20.10
2018-12-10T15:42:32.444Z,23.10
2018-12-10T15:45:00.699Z,21.87
2018-12-10T15:47:28.862Z,21.40
2018-12-10T15:49:57.067Z,19.30
2018-12-10T15:52:25.231Z,20.13
2018-12-10T15:54:53.504Z,14.90
2018-12-10T15:57:21.771Z,16.60
2018-12-10T15:59:49.949Z,12.70
2018-12-10T16:02:18.178Z,17.63
2018-12-10T16:04:46.495Z,21.03
2018-12-10T16:07:14.776Z,17.07
2018-12-10T16:09:42.989Z,15.80
2018-12-10T16:12:11.226Z,14.00
2018-12-10T16:14:39.982Z,18.17
2018-12-10T16:17:09.008Z,18.40
2018-12-10T16:19:37.220Z,20.77
2018-12-10T16:22:05.462Z,23.50
2018-12-10T16:24:33.626Z,20.80
2018-12-10T16:27:01.869Z,17.33
2018-12-10T16:29:30.022Z,19.30
2018-12-10T16:31:58.954Z,18.10
2018-12-10T16:34:27.270Z,19.73
2018-12-10T16:36:55.483Z,22.33
2018-12-10T16:39:23.946Z,23.43
2018-12-10T16:41:52.163Z,21.80
2018-12-10T16:44:20.425Z,20.00
2018-12-10T16:46:48.648Z,22.73
2018-12-10T16:49:16.896Z,20.10
2018-12-10T16:51:45.068Z,22.73
2018-12-10T16:54:13.297Z,17.10
2018-12-10T16:56:41.621Z,20.53
2018-12-10T16:59:09.946Z,21.53
2018-12-10T17:01:38.229Z,17.97
2018-12-10T17:04:06.644Z,20.17
2018-12-10T17:06:35.132Z,17.70
2018-12-10T17:09:04.605Z,23.23
2018-12-10T17:11:33.034Z,20.33
2018-12-10T17:14:01.645Z,15.67
2018-12-10T17:16:29.809Z,22.40
2018-12-10T17:18:58.036Z,16.03
2018-12-10T17:21:26.536Z,21.90
2018-12-10T17:23:54.798Z,17.70
2018-12-10T17:26:23.072Z,23.27
2018-12-10T17:28:51.306Z,19.40
2018-12-10T17:31:19.677Z,20.23
2018-12-10T17:33:47.884Z,17.27
2018-12-10T17:36:16.178Z,23.13
2018-12-10T17:38:44.570Z,15.20
2018-12-10T17:41:13.095Z,25.33
2018-12-10T17:43:41.242Z,20.20
2018-12-10T17:46:09.412Z,25.90
2018-12-10T17:48:37.636Z,16.00
2018-12-10T17:51:05.938Z,15.80
2018-12-10T17:53:34.100Z,21.13
2018-12-10T17:56:02.377Z,15.43
2018-12-10T17:58:30.661Z,18.87
2018-12-10T18:00:58.930Z,17.37
2018-12-10T18:03:27.208Z,14.17
2018-12-10T18:05:55.489Z,16.87
2018-12-10T18:08:23.648Z,15.83
2018-12-10T18:10:51.864Z,12.50
2018-12-10T18:13:20.026Z,19.97
2018-12-10T18:15:48.193Z,14.30
2018-12-10T18:18:16.478Z,14.50
2018-12-10T18:20:44.754Z,14.60
2018-12-10T18:23:13.006Z,15.57
2018-12-10T18:25:41.282Z,15.30
2018-12-10T18:28:09.484Z,15.80
2018-12-10T18:30:37.733Z,18.80
2018-12-10T18:33:07.544Z,15.90
2018-12-10T18:35:35.767Z,12.70
2018-12-10T18:38:04.361Z,12.63
2018-12-10T18:40:32.561Z,16.20
2018-12-10T18:43:01.367Z,20.80
2018-12-10T18:45:30.321Z,18.77
2018-12-10T18:47:58.523Z,33.60
2018-12-10T18:50:26.746Z,20.53
2018-12-10T18:52:55.285Z,15.43
2018-12-10T18:55:23.987Z,24.27
2018-12-10T18:57:52.301Z,17.83
2018-12-10T19:00:21.838Z,23.77
2018-12-10T19:02:50.134Z,20.17
2018-12-10T19:05:18.392Z,15.07
2018-12-10T19:07:46.610Z,30.07
2018-12-10T19:10:14.828Z,17.40
2018-12-10T19:12:43.041Z,22.50
2018-12-10T19:15:11.348Z,19.03
2018-12-10T19:17:40.164Z,20.33
2018-12-10T19:20:13.482Z,20.90
2018-12-10T19:22:38.948Z,12.53
2018-12-10T19:25:07.239Z,17.10
2018-12-10T19:27:36.368Z,16.90
2018-12-10T19:30:06.291Z,25.07
2018-12-10T19:32:35.454Z,24.67
2018-12-10T19:35:04.167Z,17.50
2018-12-10T19:37:32.513Z,20.07
2018-12-10T19:40:01.063Z,16.60
2018-12-10T19:42:29.298Z,21.20
2018-12-10T19:44:57.532Z,24.07
2018-12-10T19:47:25.741Z,20.40
2018-12-10T19:49:54.020Z,24.33
2018-12-10T19:52:23.174Z,27.00
2018-12-10T19:54:51.400Z,26.10
2018-12-10T19:57:19.660Z,17.20
2018-12-10T19:59:48.454Z,18.93
2018-12-10T20:02:16.674Z,22.87
2018-12-10T20:04:45.218Z,18.43
2018-12-10T20:07:13.489Z,15.10
2018-12-10T20:09:42.313Z,18.80
2018-12-10T20:12:10.742Z,14.33
2018-12-10T20:14:39.269Z,18.57
2018-12-10T20:17:07.519Z,13.33
2018-12-10T20:19:35.773Z,16.37
2018-12-10T20:22:04.051Z,17.27
2018-12-10T20:24:32.237Z,21.37
2018-12-10T20:27:00.603Z,18.20
2018-12-10T20:29:28.884Z,22.33
2018-12-10T20:31:57.842Z,18.53
2018-12-10T20:34:26.371Z,18.53
2018-12-10T20:36:54.599Z,12.17
2018-12-10T20:39:22.814Z,14.00
2018-12-10T20:41:51.760Z,18.73
2018-12-10T20:44:19.932Z,17.87
2018-12-10T20:46:48.967Z,16.23
2018-12-10T20:49:17.220Z,16.03
2018-12-10T20:51:45.719Z,15.70
2018-12-10T20:54:13.922Z,16.70
2018-12-10T20:56:42.168Z,17.87
2018-12-10T20:59:11.285Z,19.00
2018-12-10T21:01:40.252Z,12.33
2018-12-10T21:04:08.444Z,12.10
2018-12-10T21:06:36.751Z,19.67
2018-12-10T21:09:06.722Z,17.53
2018-12-10T21:11:35.100Z,13.70
2018-12-10T21:14:03.378Z,13.20
2018-12-10T21:16:31.939Z,12.90
2018-12-10T21:19:00.345Z,16.63
2018-12-10T21:21:28.517Z,13.57
2018-12-10T21:23:56.831Z,16.43
2018-12-10T21:26:25.152Z,17.60
2018-12-10T21:28:53.450Z,18.13
2018-12-10T21:31:21.700Z,14.37
2018-12-10T21:33:50.133Z,16.70
2018-12-10T21:36:18.368Z,14.60
2018-12-10T21:38:46.684Z,22.07
2018-12-10T21:41:14.941Z,15.20
2018-12-10T21:43:43.810Z,20.87
2018-12-10T21:46:11.982Z,13.63
2018-12-10T21:48:40.297Z,17.27
2018-12-10T21:51:08.478Z,12.83
2018-12-10T21:53:36.697Z,18.97
2018-12-10T21:56:04.977Z,15.90
2018-12-10T21:58:33.156Z,10.90
2018-12-10T22:01:01.516Z,15.97
2018-12-10T22:03:29.787Z,17.97
2018-12-10T22:05:58.064Z,17.03
2018-12-10T22:08:26.468Z,15.67
2018-12-10T22:10:54.661Z,13.47
2018-12-10T22:13:22.883Z,13.07
2018-12-10T22:15:51.066Z,10.00
2018-12-10T22:18:19.448Z,11.83
2018-12-10T22:20:47.730Z,10.07
2018-12-10T22:23:15.946Z,11.47
2018-12-10T22:25:44.189Z,16.73
2018-12-10T22:28:12.352Z,12.23
2018-12-10T22:30:40.808Z,17.30
2018-12-10T22:33:09.105Z,17.77
2018-12-10T22:35:37.348Z,16.53
2018-12-10T22:38:05.662Z,13.40
2018-12-10T22:40:33.929Z,11.50
2018-12-10T22:43:02.384Z,14.43
2018-12-10T22:45:30.781Z,14.23
2018-12-10T22:47:59.068Z,12.87
2018-12-10T22:50:27.235Z,15.87
2018-12-10T22:52:55.405Z,21.20
2018-12-10T22:55:23.663Z,19.57
2018-12-10T22:57:51.831Z,17.53
2018-12-10T23:00:22.064Z,17.53
2018-12-10T23:02:50.266Z,19.53
2018-12-10T23:05:18.531Z,15.13
2018-12-10T23:07:46.803Z,17.43
2018-12-10T23:10:15.054Z,14.07
2018-12-10T23:12:43.217Z,12.90
2018-12-10T23:15:11.520Z,12.60
2018-12-10T23:17:39.716Z,14.20
2018-12-10T23:20:08.177Z,11.67
2018-12-10T23:22:36.450Z,13.47
2018-12-10T23:25:04.768Z,15.27
2018-12-10T23:27:32.978Z,13.50
2018-12-10T23:30:01.311Z,8.93
2018-12-10T23:32:29.648Z,11.23
2018-12-10T23:34:57.822Z,11.13
2018-12-10T23:37:26.015Z,14.07
2018-12-10T23:39:54.278Z,15.87
2018-12-10T23:42:22.684Z,12.40
2018-12-10T23:51:42.274Z,18.80
2018-12-10T23:54:10.482Z,16.73
2018-12-10T23:56:38.641Z,13.17
2018-12-10T23:59:06.896Z,11.57
